Time;durP1;ratioP1;P1;durP2;ratioP2;P2;SDS_P1;SDS_P2;PMS_P1;PMS_P2;Temp;Humidity;BMP_temperature;BMP_pressure;BME280_temperature;BME280_humidity;BME280_pressure;Samples;Min_cycle;Max_cycle;Signal;HPM_P1;HPM_P2
2024/01/29 09:21:06;;;;;;;3.27;1.93;;;10.60;99.90;;;;;;3298333;26;20332;-78
2024/01/29 09:23:32;;;;;;;3.63;1.87;;;10.70;99.90;;;;;;4929880;29;20308;-78
2024/01/29 09:25:59;;;;;;;2.53;1.73;;;10.60;99.90;;;;;;4932543;29;20231;-79
2024/01/29 09:28:26;;;;;;;4.13;2.20;;;10.60;99.90;;;;;;4935313;29;20208;-84
2024/01/29 09:30:53;;;;;;;3.40;1.90;;;10.60;99.90;;;;;;4922189;29;20210;-75
2024/01/29 09:33:20;;;;;;;3.13;2.00;;;10.60;99.90;;;;;;4916140;29;20301;-75
2024/01/29 09:35:47;;;;;;;3.23;2.03;;;10.50;99.90;;;;;;4915938;29;20690;-76
2024/01/29 09:38:15;;;;;;;3.23;1.70;;;10.60;99.90;;;;;;4933416;29;20213;-75
2024/01/29 09:40:44;;;;;;;3.17;1.57;;;10.60;99.90;;;;;;4923767;29;20293;-75
2024/01/29 09:43:12;;;;;;;3.40;1.67;;;10.60;99.90;;;;;;4915920;29;20210;-75
2024/01/29 09:45:40;;;;;;;3.37;1.60;;;10.70;99.90;;;;;;4915881;29;20210;-77
2024/01/29 09:48:12;;;;;;;3.13;1.40;;;10.80;99.90;;;;;;4924818;29;20275;-79
2024/01/29 09:50:41;;;;;;;6.57;2.10;;;10.90;99.90;;;;;;4925002;29;20301;-81
2024/01/29 09:53:11;;;;;;;5.03;2.00;;;11.00;99.90;;;;;;4919648;29;20700;-80
2024/01/29 09:55:39;;;;;;;3.13;1.93;;;11.10;99.90;;;;;;4919300;29;20241;-79
2024/01/29 09:58:06;;;;;;;4.20;1.87;;;11.20;99.90;;;;;;4928619;29;20221;-80
2024/01/29 10:00:32;;;;;;;3.53;1.77;;;11.30;99.90;;;;;;4929224;29;20212;-80
2024/01/29 10:03:03;;;;;;;4.27;2.00;;;11.40;99.90;;;;;;4919463;29;20206;-79
2024/01/29 10:05:31;;;;;;;2.50;1.10;;;11.50;99.90;;;;;;4918984;29;20217;-78
2024/01/29 10:07:58;;;;;;;2.90;1.70;;;11.60;99.90;;;;;;4927244;29;20249;-79
2024/01/29 10:10:25;;;;;;;2.73;1.60;;;11.70;99.90;;;;;;4930739;29;20301;-78
2024/01/29 10:13:03;;;;;;;3.00;1.57;;;11.80;99.90;;;;;;4921332;29;20236;-78
2024/01/29 10:15:31;;;;;;;3.13;1.60;;;11.90;99.90;;;;;;4937231;29;20734;-78
2024/01/29 10:17:58;;;;;;;4.80;2.07;;;11.80;99.90;;;;;;4937781;29;20704;-80
2024/01/29 10:20:25;;;;;;;4.90;2.10;;;11.80;99.90;;;;;;4930923;29;20221;-80
2024/01/29 10:22:59;;;;;;;2.73;1.90;;;11.70;99.90;;;;;;4919416;29;20608;-80
2024/01/29 10:25:26;;;;;;;3.43;1.93;;;11.80;99.90;;;;;;4918892;29;20206;-77
2024/01/29 10:28:04;;;;;;;3.97;2.10;;;11.90;99.90;;;;;;4926174;29;20267;-80
2024/01/29 10:30:31;;;;;;;3.03;1.77;;;12.00;99.90;;;;;;4930813;29;20201;-78
2024/01/29 10:32:57;;;;;;;3.00;2.03;;;12.00;99.90;;;;;;4918958;29;20210;-78
2024/01/29 10:35:25;;;;;;;3.93;2.27;;;12.00;99.90;;;;;;4918435;29;20206;-80
2024/01/29 10:37:52;;;;;;;3.53;1.80;;;11.90;99.90;;;;;;4926868;29;20231;-78
2024/01/29 10:40:22;;;;;;;3.00;1.70;;;11.90;99.90;;;;;;4932780;29;20293;-80
2024/01/29 10:42:50;;;;;;;4.73;2.03;;;12.00;99.90;;;;;;4917893;29;20260;-80
2024/01/29 10:45:21;;;;;;;3.97;2.07;;;12.10;99.90;;;;;;4930677;29;20198;-82
2024/01/29 10:47:50;;;;;;;5.37;2.13;;;12.30;99.90;;;;;;4923797;29;20247;-77
2024/01/29 10:50:19;;;;;;;3.77;1.70;;;12.40;99.90;;;;;;4932797;29;20209;-80
2024/01/29 10:52:48;;;;;;;3.60;2.17;;;12.30;99.90;;;;;;4918156;29;20214;-78
2024/01/29 10:55:17;;;;;;;3.70;2.00;;;12.40;99.90;;;;;;4918573;29;20289;-78
2024/01/29 10:57:47;;;;;;;3.57;1.97;;;12.40;99.90;;;;;;4924718;29;20311;-78
2024/01/29 11:00:16;;;;;;;3.57;1.87;;;12.40;99.90;;;;;;4934112;29;20241;-77
2024/01/29 11:02:44;;;;;;;3.63;1.80;;;12.30;99.90;;;;;;4917758;29;20220;-82
2024/01/29 11:05:13;;;;;;;4.83;2.37;;;12.20;99.90;;;;;;4918501;29;20210;-82
2024/01/29 11:07:44;;;;;;;3.60;1.83;;;12.20;99.90;;;;;;4924014;29;20237;-82
2024/01/29 11:10:18;;;;;;;5.07;3.07;;;12.40;99.90;;;;;;4934601;29;20627;-81
2024/01/29 11:12:45;;;;;;;3.33;2.00;;;12.40;99.90;;;;;;4934894;29;20281;-79
2024/01/29 11:15:12;;;;;;;2.50;1.57;;;12.30;99.90;;;;;;4936784;29;20578;-79
2024/01/29 11:17:41;;;;;;;5.73;2.10;;;12.40;99.90;;;;;;4936755;29;20220;-75
2024/01/29 11:20:13;;;;;;;3.33;1.90;;;12.30;99.90;;;;;;4935385;29;20221;-76
2024/01/29 11:22:41;;;;;;;4.23;1.90;;;12.30;99.90;;;;;;4917808;29;20239;-77
2024/01/29 11:25:09;;;;;;;3.47;2.13;;;12.30;99.90;;;;;;4917704;29;20202;-76
2024/01/29 11:27:38;;;;;;;4.23;2.13;;;12.30;99.90;;;;;;4922933;29;20242;-81
2024/01/29 11:30:18;;;;;;;3.53;1.80;;;12.40;99.90;;;;;;4936204;29;20205;-82
2024/01/29 11:32:45;;;;;;;3.43;2.07;;;12.40;99.90;;;;;;4917934;29;20213;-84
2024/01/29 11:35:15;;;;;;;4.40;2.37;;;12.50;99.90;;;;;;4917808;29;20231;-81
2024/01/29 11:37:43;;;;;;;4.47;1.97;;;12.50;99.90;;;;;;4923820;29;20316;-78
2024/01/29 11:40:36;;;;;;;3.90;2.50;;;12.60;99.90;;;;;;4935686;29;20220;-80
2024/01/29 11:43:04;;;;;;;6.00;2.50;;;12.50;99.90;;;;;;4917721;29;20244;-80
2024/01/29 11:45:31;;;;;;;3.60;2.07;;;12.60;99.90;;;;;;4921210;29;20287;-82
2024/01/29 11:47:59;;;;;;;5.10;2.00;;;12.70;99.90;;;;;;4936232;29;20280;-82
2024/01/29 11:50:28;;;;;;;7.80;2.43;;;12.60;99.90;;;;;;4936330;29;20293;-81
2024/01/29 11:52:55;;;;;;;4.87;2.07;;;12.60;99.90;;;;;;4936344;29;20334;-77
2024/01/29 11:55:22;;;;;;;3.50;2.13;;;12.60;99.90;;;;;;4936239;29;20213;-81
2024/01/29 11:57:52;;;;;;;4.43;2.10;;;12.70;99.90;;;;;;4936517;29;20240;-76
2024/01/29 12:00:19;;;;;;;6.23;2.43;;;12.70;99.90;;;;;;4936474;29;20308;-77
2024/01/29 12:02:48;;;;;;;5.57;2.77;;;12.70;99.90;;;;;;4936432;29;20212;-77
2024/01/29 12:05:17;;;;;;;3.93;2.30;;;12.70;99.90;;;;;;4936386;29;20236;-76
2024/01/29 12:07:46;;;;;;;3.03;2.17;;;12.80;99.90;;;;;;4935866;29;20240;-77
2024/01/29 12:10:12;;;;;;;3.67;2.10;;;12.80;99.90;;;;;;4936096;29;20300;-76
2024/01/29 12:12:39;;;;;;;3.33;2.20;;;12.90;99.90;;;;;;4936225;29;20738;-76
2024/01/29 12:15:08;;;;;;;2.37;1.60;;;13.00;99.90;;;;;;4935263;29;20205;-77
2024/01/29 12:17:37;;;;;;;3.93;2.13;;;13.10;99.90;;;;;;4935641;29;20224;-76
2024/01/29 12:20:05;;;;;;;3.27;2.00;;;13.00;99.90;;;;;;4935809;29;20217;-76
2024/01/29 12:22:32;;;;;;;4.63;2.50;;;12.90;99.90;;;;;;4935825;29;20215;-76
2024/01/29 12:25:00;;;;;;;3.67;1.93;;;12.90;99.90;;;;;;4935647;29;20767;-77
2024/01/29 12:27:27;;;;;;;3.00;2.03;;;12.90;99.90;;;;;;4935486;29;20327;-77
2024/01/29 12:29:54;;;;;;;3.63;2.47;;;13.00;99.90;;;;;;4935809;29;20212;-77
2024/01/29 12:32:21;;;;;;;3.27;2.13;;;13.00;99.90;;;;;;4935665;29;20217;-77
2024/01/29 12:34:50;;;;;;;3.20;2.10;;;13.10;99.90;;;;;;4935380;29;20219;-79
2024/01/29 12:37:21;;;;;;;3.73;2.33;;;13.20;99.90;;;;;;4935774;29;20241;-81
2024/01/29 12:39:52;;;;;;;3.70;2.17;;;13.20;99.90;;;;;;4935575;29;20255;-81
2024/01/29 12:42:20;;;;;;;3.37;2.00;;;13.30;99.90;;;;;;4935694;29;20209;-80
2024/01/29 12:44:50;;;;;;;3.47;1.90;;;13.40;99.90;;;;;;4935848;29;20236;-79
2024/01/29 12:47:18;;;;;;;3.03;1.93;;;13.50;99.90;;;;;;4935633;29;20337;-79
2024/01/29 12:49:46;;;;;;;3.63;2.27;;;13.50;99.90;;;;;;4935621;29;20244;-77
2024/01/29 12:52:13;;;;;;;3.57;2.03;;;13.60;99.90;;;;;;4935471;29;20299;-78
2024/01/29 12:54:40;;;;;;;5.97;2.03;;;13.70;99.90;;;;;;4935531;29;20212;-80
2024/01/29 12:57:07;;;;;;;3.83;1.80;;;13.70;99.90;;;;;;4935571;29;20324;-80
2024/01/29 12:59:36;;;;;;;3.97;1.90;;;13.70;99.90;;;;;;4935575;29;20223;-77
2024/01/29 13:02:03;;;;;;;4.67;2.20;;;13.60;99.90;;;;;;4935529;29;20208;-78
2024/01/29 13:04:30;;;;;;;7.33;2.00;;;13.50;99.90;;;;;;4935760;29;20244;-81
2024/01/29 13:06:57;;;;;;;3.97;2.00;;;13.50;99.90;;;;;;4935559;29;20579;-80
2024/01/29 13:09:23;;;;;;;4.43;1.90;;;13.50;99.90;;;;;;4935614;29;20215;-78
2024/01/29 13:11:50;;;;;;;2.00;1.37;;;13.60;99.90;;;;;;4935457;29;20212;-80
2024/01/29 13:14:17;;;;;;;3.17;2.07;;;13.60;99.90;;;;;;4935521;29;20213;-80
2024/01/29 13:16:46;;;;;;;3.90;2.43;;;13.60;99.90;;;;;;4935543;29;20239;-78
2024/01/29 13:19:12;;;;;;;4.07;2.17;;;13.70;99.90;;;;;;4935766;29;20234;-79
2024/01/29 13:21:41;;;;;;;3.03;1.77;;;13.80;99.90;;;;;;4935067;29;20311;-81
2024/01/29 13:24:08;;;;;;;3.57;1.73;;;13.90;99.90;;;;;;4935261;29;20224;-81
2024/01/29 13:26:40;;;;;;;2.40;1.90;;;13.80;99.90;;;;;;4937054;29;20603;-78
2024/01/29 13:29:08;;;;;;;4.00;1.90;;;13.80;99.90;;;;;;4939428;29;20245;-80
2024/01/29 13:31:34;;;;;;;3.97;1.60;;;13.90;99.90;;;;;;4938812;29;20227;-78
2024/01/29 13:34:03;;;;;;;2.80;1.83;;;14.00;99.90;;;;;;4938834;29;20209;-80
2024/01/29 13:36:29;;;;;;;4.00;1.70;;;14.10;99.90;;;;;;4938936;29;20239;-78
2024/01/29 13:38:56;;;;;;;6.90;2.07;;;14.30;99.90;;;;;;4938992;29;20212;-79
2024/01/29 13:41:23;;;;;;;3.30;2.20;;;14.30;99.90;;;;;;4938731;29;20296;-81
2024/01/29 13:43:50;;;;;;;5.90;2.27;;;14.30;99.90;;;;;;4939175;29;20212;-80
2024/01/29 13:46:18;;;;;;;5.20;2.10;;;14.30;99.90;;;;;;4938956;29;20927;-80
2024/01/29 13:48:44;;;;;;;2.97;1.67;;;14.30;99.90;;;;;;4938846;29;20233;-80
2024/01/29 13:51:20;;;;;;;3.20;1.80;;;14.30;99.90;;;;;;4938491;29;20216;-80
2024/01/29 13:53:48;;;;;;;3.83;1.90;;;14.20;99.90;;;;;;4938710;29;20219;-80
2024/01/29 13:56:15;;;;;;;2.83;2.00;;;14.30;99.90;;;;;;4934464;29;20703;-78
2024/01/29 13:58:43;;;;;;;5.23;2.10;;;14.40;99.90;;;;;;4938534;29;20221;-77
2024/01/29 14:01:11;;;;;;;3.23;1.80;;;14.30;99.90;;;;;;4929097;29;20300;-80
2024/01/29 14:03:38;;;;;;;4.33;2.07;;;14.30;99.90;;;;;;4938156;29;20692;-85
2024/01/29 14:06:05;;;;;;;3.47;2.03;;;14.40;99.90;;;;;;4938046;29;20700;-79
2024/01/29 14:08:33;;;;;;;3.67;2.10;;;14.40;99.90;;;;;;4938234;29;20711;-77
2024/01/29 14:11:00;;;;;;;2.93;1.73;;;14.40;99.90;;;;;;4938351;29;20247;-78
2024/01/29 14:13:28;;;;;;;5.60;2.13;;;14.50;99.90;;;;;;4940133;29;20241;-87
2024/01/29 14:15:55;;;;;;;2.57;1.67;;;14.50;99.90;;;;;;4928432;29;20244;-80
2024/01/29 14:18:22;;;;;;;2.83;1.80;;;14.40;99.90;;;;;;4940062;29;20247;-76
2024/01/29 14:20:51;;;;;;;3.00;1.80;;;14.30;99.90;;;;;;4939658;29;20213;-78
2024/01/29 14:23:18;;;;;;;3.77;1.80;;;14.20;99.90;;;;;;4939706;29;20232;-80
2024/01/29 14:25:46;;;;;;;3.97;1.73;;;14.10;99.90;;;;;;4934805;29;20208;-80
2024/01/29 14:28:15;;;;;;;2.77;1.70;;;14.10;99.90;;;;;;4919356;29;20240;-78
2024/01/29 14:30:43;;;;;;;2.60;1.80;;;14.10;99.90;;;;;;4920208;29;20209;-79
2024/01/29 14:33:10;;;;;;;3.43;2.00;;;14.00;99.90;;;;;;4919860;29;20296;-76
2024/01/29 14:35:37;;;;;;;1.93;1.40;;;13.90;99.90;;;;;;4919401;29;20767;-76
2024/01/29 14:38:04;;;;;;;3.50;1.80;;;13.90;99.90;;;;;;4922298;29;20217;-76
2024/01/29 14:40:31;;;;;;;3.97;1.83;;;14.00;99.90;;;;;;4928455;29;20240;-79
2024/01/29 14:43:00;;;;;;;4.23;1.90;;;14.00;99.90;;;;;;4921820;29;20206;-81
2024/01/29 14:45:26;;;;;;;2.60;1.83;;;14.00;99.90;;;;;;4920558;29;20676;-81
2024/01/29 14:47:53;;;;;;;2.80;1.97;;;13.80;99.90;;;;;;4919815;29;20328;-84
2024/01/29 14:50:20;;;;;;;7.27;3.27;;;13.70;99.90;;;;;;4920126;29;20618;-82
2024/01/29 14:52:47;;;;;;;3.83;1.70;;;13.70;99.90;;;;;;4920462;29;20301;-80
2024/01/29 14:55:14;;;;;;;4.30;1.90;;;13.70;99.90;;;;;;4919160;29;20216;-80
2024/01/29 14:57:41;;;;;;;2.83;1.67;;;13.70;99.90;;;;;;4918717;29;20712;-82
2024/01/29 15:00:11;;;;;;;2.77;1.87;;;13.80;99.90;;;;;;4919129;29;20209;-82
2024/01/29 15:02:38;;;;;;;3.30;1.20;;;13.80;99.90;;;;;;4920015;29;20613;-81
2024/01/29 15:05:08;;;;;;;3.57;1.57;;;13.80;99.90;;;;;;4919280;29;20209;-83
2024/01/29 15:07:35;;;;;;;2.40;1.30;;;13.80;99.90;;;;;;4920310;29;20767;-83
2024/01/29 15:10:02;;;;;;;3.97;1.60;;;13.70;99.90;;;;;;4921420;29;20210;-85
2024/01/29 15:12:29;;;;;;;4.50;1.77;;;13.80;99.90;;;;;;4920119;29;20205;-83
2024/01/29 15:14:56;;;;;;;3.07;1.93;;;13.80;99.90;;;;;;4918737;29;20260;-85
2024/01/29 15:17:24;;;;;;;2.70;1.70;;;13.80;99.90;;;;;;4919531;29;20261;-83
2024/01/29 15:19:51;;;;;;;3.10;1.50;;;13.80;99.90;;;;;;4918658;29;20240;-82
2024/01/29 15:22:19;;;;;;;3.77;1.70;;;13.80;99.90;;;;;;4918991;29;20308;-85
2024/01/29 15:24:47;;;;;;;3.17;1.63;;;13.80;99.90;;;;;;4918986;29;20217;-83
2024/01/29 15:27:14;;;;;;;3.37;1.60;;;13.80;99.90;;;;;;4918295;29;20233;-81
2024/01/29 15:29:41;;;;;;;4.33;1.80;;;13.70;99.90;;;;;;4918526;29;20324;-84
2024/01/29 15:32:08;;;;;;;3.63;1.50;;;13.80;99.90;;;;;;4918392;29;20668;-81
2024/01/29 15:34:40;;;;;;;7.40;1.90;;;13.80;99.90;;;;;;4919350;29;20291;-84
2024/01/29 15:37:07;;;;;;;2.63;1.60;;;13.90;99.90;;;;;;4920698;29;20728;-86
2024/01/29 15:39:35;;;;;;;2.10;1.53;;;13.80;99.90;;;;;;4919451;29;20297;-82
2024/01/29 15:42:02;;;;;;;2.80;1.43;;;13.70;99.90;;;;;;4920527;29;20221;-83
2024/01/29 15:44:29;;;;;;;4.07;1.60;;;13.80;99.90;;;;;;4920387;29;20232;-82
2024/01/29 15:46:56;;;;;;;3.10;1.70;;;13.70;99.90;;;;;;4920141;29;20316;-84
2024/01/29 15:49:23;;;;;;;4.97;1.73;;;13.60;99.90;;;;;;4919282;29;20240;-82
2024/01/29 15:51:51;;;;;;;4.90;1.80;;;13.60;99.90;;;;;;4918139;29;20216;-83
2024/01/29 15:54:18;;;;;;;2.77;1.93;;;13.50;99.90;;;;;;4918156;29;20602;-83
2024/01/29 15:56:45;;;;;;;3.37;1.83;;;13.40;99.90;;;;;;4918482;29;20316;-83
2024/01/29 15:59:12;;;;;;;4.77;1.77;;;13.40;99.90;;;;;;4919069;29;20300;-84
2024/01/29 16:01:38;;;;;;;3.87;1.97;;;13.40;99.90;;;;;;4919573;29;20206;-81
2024/01/29 16:04:06;;;;;;;2.93;1.87;;;13.30;99.90;;;;;;4920469;29;20292;-82
2024/01/29 16:06:33;;;;;;;5.00;1.77;;;13.20;99.90;;;;;;4917954;29;20237;-82
2024/01/29 16:09:03;;;;;;;3.07;1.87;;;13.30;99.90;;;;;;4917125;29;20225;-76
2024/01/29 16:11:30;;;;;;;7.30;1.93;;;13.20;99.90;;;;;;4917577;29;20653;-76
2024/01/29 16:13:57;;;;;;;2.57;2.17;;;13.20;99.90;;;;;;4917299;29;20625;-76
2024/01/29 16:16:24;;;;;;;2.27;1.60;;;13.30;99.90;;;;;;4917120;29;20693;-75
2024/01/29 16:18:51;;;;;;;3.27;1.60;;;13.20;99.90;;;;;;4917156;29;20300;-77
2024/01/29 16:21:21;;;;;;;3.43;1.70;;;13.10;99.90;;;;;;4916944;29;20221;-77
2024/01/29 16:23:48;;;;;;;3.77;1.70;;;12.90;99.90;;;;;;4917041;29;20334;-75
2024/01/29 16:26:19;;;;;;;3.67;1.53;;;12.90;99.90;;;;;;4916978;29;20234;-77
2024/01/29 16:28:46;;;;;;;2.93;1.77;;;12.90;99.90;;;;;;4917259;29;20244;-78
2024/01/29 16:31:12;;;;;;;3.47;2.00;;;12.80;99.90;;;;;;4916949;29;20216;-76
2024/01/29 16:33:39;;;;;;;4.73;1.70;;;12.80;99.90;;;;;;4917117;29;20219;-75
2024/01/29 16:36:06;;;;;;;2.63;1.60;;;12.60;99.90;;;;;;4916716;29;20808;-75
2024/01/29 16:38:33;;;;;;;4.67;1.60;;;12.60;99.90;;;;;;4916894;29;20209;-75
2024/01/29 16:41:00;;;;;;;3.00;1.90;;;12.60;99.90;;;;;;4916639;29;20561;-85
2024/01/29 16:43:28;;;;;;;4.83;1.87;;;12.50;99.90;;;;;;4917499;29;20205;-84
2024/01/29 16:45:55;;;;;;;4.30;2.07;;;12.50;99.90;;;;;;4931839;29;20296;-89
2024/01/29 16:48:22;;;;;;;4.87;1.93;;;12.50;99.90;;;;;;4925871;29;20717;-87
2024/01/29 16:50:49;;;;;;;3.87;1.90;;;12.50;99.90;;;;;;4921443;29;20557;-84
2024/01/29 16:53:16;;;;;;;4.23;1.70;;;12.50;99.90;;;;;;4918616;29;20703;-84
2024/01/29 16:55:42;;;;;;;5.27;2.20;;;12.40;99.90;;;;;;4934174;29;20259;-79
2024/01/29 16:58:09;;;;;;;4.57;2.20;;;12.40;99.90;;;;;;4934209;29;20247;-85
2024/01/29 17:00:37;;;;;;;3.40;2.10;;;12.40;99.90;;;;;;4934681;29;20216;-82
2024/01/29 17:03:05;;;;;;;3.07;1.63;;;12.30;99.90;;;;;;4938353;29;20441;-81
2024/01/29 17:05:32;;;;;;;4.57;2.30;;;12.30;99.90;;;;;;4938454;29;20209;-81
2024/01/29 17:07:59;;;;;;;4.93;2.20;;;12.30;99.90;;;;;;4929913;29;20316;-83
2024/01/29 17:10:27;;;;;;;3.53;1.77;;;12.30;99.90;;;;;;4937893;29;20335;-80
2024/01/29 17:12:54;;;;;;;5.17;2.30;;;12.20;99.90;;;;;;4938234;29;20220;-74
2024/01/29 17:15:21;;;;;;;2.90;2.03;;;12.20;99.90;;;;;;4920414;29;20244;-82
2024/01/29 17:17:49;;;;;;;4.63;2.10;;;12.20;99.90;;;;;;4919379;29;20268;-84
2024/01/29 17:20:16;;;;;;;4.00;1.90;;;12.20;99.90;;;;;;4929545;29;20221;-75
2024/01/29 17:22:43;;;;;;;7.00;2.27;;;12.10;99.90;;;;;;4941051;29;20303;-85
2024/01/29 17:25:10;;;;;;;4.63;2.30;;;12.10;99.90;;;;;;4938796;29;20299;-81
2024/01/29 17:27:37;;;;;;;3.07;1.87;;;11.90;99.90;;;;;;4938226;29;20328;-80
2024/01/29 17:30:04;;;;;;;5.33;2.57;;;12.00;99.90;;;;;;4937402;29;20291;-84
2024/01/29 17:32:31;;;;;;;7.43;2.83;;;12.00;99.90;;;;;;4940823;29;20205;-89
2024/01/29 17:34:59;;;;;;;4.70;2.40;;;11.90;99.90;;;;;;4938096;29;20320;-84
2024/01/29 17:37:29;;;;;;;4.77;2.13;;;11.90;99.90;;;;;;4939395;29;20339;-86
2024/01/29 17:39:55;;;;;;;5.77;2.40;;;11.90;99.90;;;;;;4931131;29;20240;-78
2024/01/29 17:42:22;;;;;;;5.47;2.37;;;12.00;99.90;;;;;;4956511;29;20298;-83
2024/01/29 17:44:49;;;;;;;7.97;2.30;;;11.80;99.90;;;;;;4942452;29;20291;-81
2024/01/29 17:47:16;;;;;;;3.73;2.07;;;11.80;99.90;;;;;;4937236;29;20596;-80
2024/01/29 17:49:43;;;;;;;5.13;2.00;;;11.80;99.90;;;;;;4933234;29;20627;-88
2024/01/29 17:52:11;;;;;;;3.07;1.80;;;11.70;99.90;;;;;;4938000;29;20841;-81
2024/01/29 17:54:41;;;;;;;5.50;2.30;;;11.60;99.90;;;;;;4940131;29;20296;-82
2024/01/29 17:57:08;;;;;;;4.03;1.97;;;11.70;99.90;;;;;;4937265;29;20256;-80
2024/01/29 17:59:35;;;;;;;3.77;2.03;;;11.60;99.90;;;;;;4937544;29;20201;-80
2024/01/29 18:02:02;;;;;;;3.70;1.63;;;11.60;99.90;;;;;;4937061;29;20213;-81
2024/01/29 18:04:29;;;;;;;5.03;2.00;;;11.60;99.90;;;;;;4933872;29;20679;-76
2024/01/29 18:06:57;;;;;;;3.33;1.87;;;11.50;99.90;;;;;;4913775;29;20305;-79
2024/01/29 18:09:27;;;;;;;3.83;1.63;;;11.50;99.90;;;;;;4934987;29;20576;-78
2024/01/29 18:11:54;;;;;;;2.60;1.50;;;11.50;99.90;;;;;;4937046;29;20208;-81
2024/01/29 18:14:21;;;;;;;2.63;1.57;;;11.50;99.90;;;;;;4936860;29;20232;-80
2024/01/29 18:16:48;;;;;;;4.93;1.80;;;11.50;99.90;;;;;;4937938;29;20239;-77
2024/01/29 18:19:16;;;;;;;3.43;1.20;;;11.50;99.90;;;;;;4938119;29;20217;-77
2024/01/29 18:21:42;;;;;;;3.23;1.83;;;11.50;99.90;;;;;;4938040;29;20212;-79
2024/01/29 18:24:09;;;;;;;2.63;1.67;;;11.50;99.90;;;;;;4937959;29;20209;-80
2024/01/29 18:26:39;;;;;;;3.03;1.70;;;11.40;99.90;;;;;;4937940;29;20324;-79
2024/01/29 18:29:06;;;;;;;4.37;1.70;;;11.40;99.90;;;;;;4927629;29;20263;-79
2024/01/29 18:31:33;;;;;;;3.83;1.67;;;11.40;99.90;;;;;;4940055;29;20715;-79
2024/01/29 18:34:00;;;;;;;4.37;1.53;;;11.40;99.90;;;;;;4941812;29;20557;-79
2024/01/29 18:36:27;;;;;;;4.10;1.30;;;11.50;99.90;;;;;;4926471;29;20253;-80
2024/01/29 18:38:53;;;;;;;2.93;1.70;;;11.50;99.90;;;;;;4924729;29;20264;-77
2024/01/29 18:41:23;;;;;;;3.27;1.47;;;11.50;99.90;;;;;;4947998;29;20211;-79
2024/01/29 18:43:51;;;;;;;4.60;1.53;;;11.50;99.90;;;;;;4938000;29;20292;-76
2024/01/29 18:46:19;;;;;;;2.70;1.77;;;11.50;99.90;;;;;;4951691;29;20228;-77
2024/01/29 18:48:47;;;;;;;6.03;1.87;;;11.50;99.90;;;;;;4928432;29;20309;-77
2024/01/29 18:51:23;;;;;;;4.43;1.83;;;11.50;99.90;;;;;;4936066;29;20247;-76
2024/01/29 18:53:50;;;;;;;2.83;1.70;;;11.40;99.90;;;;;;4937062;29;20291;-77
2024/01/29 18:56:17;;;;;;;3.03;1.83;;;11.40;99.90;;;;;;4918891;29;20320;-77
2024/01/29 18:58:44;;;;;;;4.00;1.87;;;11.40;99.90;;;;;;4926530;29;20548;-76
2024/01/29 19:01:12;;;;;;;4.07;1.77;;;11.40;99.90;;;;;;4940173;29;20216;-80
2024/01/29 19:03:39;;;;;;;5.73;2.13;;;11.40;99.90;;;;;;4946647;28;20672;-77
2024/01/29 19:06:06;;;;;;;4.23;1.70;;;11.30;99.90;;;;;;4941190;29;20322;-76
2024/01/29 19:08:33;;;;;;;3.83;1.73;;;11.20;99.90;;;;;;4949631;29;20205;-76
2024/01/29 19:11:00;;;;;;;3.07;1.90;;;11.20;99.90;;;;;;4939838;29;20343;-78
2024/01/29 19:13:27;;;;;;;2.30;1.37;;;11.20;99.90;;;;;;4939300;29;20201;-78
2024/01/29 19:15:54;;;;;;;3.23;1.67;;;11.20;99.90;;;;;;4929518;29;20716;-76
2024/01/29 19:18:22;;;;;;;3.20;1.50;;;11.10;99.90;;;;;;4936249;29;20211;-79
2024/01/29 19:20:52;;;;;;;3.30;1.67;;;11.10;99.90;;;;;;4936079;29;20296;-77
2024/01/29 19:23:19;;;;;;;3.93;2.20;;;11.10;99.90;;;;;;4936811;29;20204;-78
2024/01/29 19:25:46;;;;;;;2.43;1.67;;;11.10;99.90;;;;;;4936641;29;20300;-77
2024/01/29 19:28:13;;;;;;;2.70;1.70;;;11.10;99.90;;;;;;4934901;29;20208;-77
2024/01/29 19:30:41;;;;;;;5.77;2.20;;;11.10;99.90;;;;;;4927454;29;20670;-80
2024/01/29 19:33:08;;;;;;;5.70;2.20;;;11.10;99.90;;;;;;4923277;29;20209;-81
2024/01/29 19:35:37;;;;;;;4.00;1.80;;;11.00;99.90;;;;;;4936225;29;20623;-80
2024/01/29 19:38:05;;;;;;;3.10;1.73;;;11.10;99.90;;;;;;4936473;29;20217;-78
2024/01/29 19:40:32;;;;;;;3.00;1.60;;;11.00;99.90;;;;;;4937425;29;20205;-80
2024/01/29 19:42:59;;;;;;;5.77;2.03;;;11.10;99.90;;;;;;4947708;29;20266;-76
2024/01/29 19:45:26;;;;;;;5.50;1.63;;;11.10;99.90;;;;;;4940361;29;20214;-75
2024/01/29 19:47:52;;;;;;;2.70;1.60;;;11.10;99.90;;;;;;4919146;29;20244;-77
2024/01/29 19:50:21;;;;;;;5.37;2.03;;;11.10;99.90;;;;;;4928697;29;20327;-78
2024/01/29 19:52:49;;;;;;;3.00;1.80;;;11.20;99.90;;;;;;4948513;29;20592;-76
2024/01/29 19:55:16;;;;;;;3.63;1.60;;;11.20;99.90;;;;;;4936361;29;20209;-76
2024/01/29 19:57:44;;;;;;;3.10;1.87;;;11.20;99.90;;;;;;4935854;29;20232;-77
2024/01/29 20:00:13;;;;;;;2.53;1.57;;;11.20;99.90;;;;;;4929741;29;20210;-75
2024/01/29 20:02:41;;;;;;;3.60;1.60;;;11.20;99.90;;;;;;4935875;29;20240;-77
2024/01/29 20:05:08;;;;;;;5.33;1.83;;;11.30;99.90;;;;;;4953624;29;20215;-76
2024/01/29 20:07:36;;;;;;;3.27;1.50;;;11.30;99.90;;;;;;4947202;29;20303;-76
2024/01/29 20:10:06;;;;;;;5.60;1.93;;;11.40;99.90;;;;;;4935497;29;20275;-76
2024/01/29 20:12:33;;;;;;;5.07;2.00;;;11.30;99.90;;;;;;4935643;29;20668;-77
2024/01/29 20:15:00;;;;;;;2.53;1.67;;;11.30;99.90;;;;;;4935456;29;20223;-76
2024/01/29 20:17:27;;;;;;;3.80;1.80;;;11.30;99.90;;;;;;4935919;29;20229;-79
2024/01/29 20:19:54;;;;;;;3.30;1.40;;;11.30;99.90;;;;;;4935877;29;20299;-79
2024/01/29 20:22:22;;;;;;;4.00;1.97;;;11.30;99.90;;;;;;4935813;29;20702;-80
2024/01/29 20:24:49;;;;;;;3.97;2.30;;;11.20;99.90;;;;;;4935392;29;20217;-80
2024/01/29 20:27:19;;;;;;;5.03;1.80;;;11.20;99.90;;;;;;4944743;29;20227;-79
2024/01/29 20:29:46;;;;;;;2.77;1.90;;;11.20;99.90;;;;;;4947030;29;20281;-80
2024/01/29 20:32:15;;;;;;;3.50;1.80;;;11.20;99.90;;;;;;4917152;29;20210;-83
2024/01/29 20:34:42;;;;;;;6.43;2.17;;;11.20;99.90;;;;;;4942172;29;20213;-80
2024/01/29 20:37:09;;;;;;;3.80;1.70;;;11.20;99.90;;;;;;4926433;29;20291;-80
2024/01/29 20:39:36;;;;;;;4.43;1.90;;;11.10;99.90;;;;;;4927415;29;20216;-80
2024/01/29 20:42:03;;;;;;;4.30;1.50;;;11.10;99.90;;;;;;4943789;29;20299;-79
2024/01/29 20:44:31;;;;;;;5.80;1.67;;;11.20;99.90;;;;;;4939193;29;20212;-80
2024/01/29 20:46:58;;;;;;;3.67;1.90;;;11.10;99.90;;;;;;4944020;29;20318;-81
2024/01/29 20:49:25;;;;;;;2.37;1.67;;;11.10;99.90;;;;;;4935641;29;20224;-81
2024/01/29 20:51:52;;;;;;;2.73;1.40;;;11.10;99.90;;;;;;4936908;29;20300;-80
2024/01/29 20:54:18;;;;;;;4.07;2.47;;;11.10;99.90;;;;;;4955726;29;20201;-78
2024/01/29 20:56:45;;;;;;;3.53;1.87;;;11.20;99.90;;;;;;4954131;29;20217;-77
2024/01/29 20:59:12;;;;;;;6.00;1.80;;;11.10;99.90;;;;;;4950859;29;20205;-78
2024/01/29 21:01:44;;;;;;;3.80;1.50;;;11.10;99.90;;;;;;4940089;29;20584;-79
2024/01/29 21:04:13;;;;;;;3.33;1.83;;;11.10;99.90;;;;;;4936608;29;20208;-80
2024/01/29 21:06:40;;;;;;;3.40;1.83;;;11.10;99.90;;;;;;4935424;29;20243;-79
2024/01/29 21:09:07;;;;;;;3.47;1.90;;;11.00;99.90;;;;;;4934845;29;20208;-79
2024/01/29 21:11:34;;;;;;;2.10;1.47;;;11.00;99.90;;;;;;4935794;29;20272;-79
2024/01/29 21:14:01;;;;;;;3.93;1.90;;;11.00;99.90;;;;;;4946705;29;20240;-77
2024/01/29 21:16:28;;;;;;;4.67;1.67;;;10.90;99.90;;;;;;4935240;29;20228;-80
2024/01/29 21:18:56;;;;;;;3.30;1.73;;;10.90;99.90;;;;;;4935270;29;20212;-79
2024/01/29 21:21:23;;;;;;;2.87;1.97;;;10.90;99.90;;;;;;4934545;29;20647;-80
2024/01/29 21:23:50;;;;;;;2.77;1.70;;;10.90;99.90;;;;;;4934629;29;20687;-77
2024/01/29 21:26:25;;;;;;;2.73;1.80;;;10.90;99.90;;;;;;4936052;29;20232;-80
2024/01/29 21:28:52;;;;;;;3.20;1.87;;;10.90;99.90;;;;;;4945965;29;20208;-81
2024/01/29 21:31:18;;;;;;;4.77;1.73;;;10.90;99.90;;;;;;4935060;29;20236;-78
2024/01/29 21:33:45;;;;;;;5.20;2.07;;;10.80;99.90;;;;;;4934623;29;20207;-78
2024/01/29 21:36:14;;;;;;;2.47;1.53;;;10.80;99.90;;;;;;4934736;29;20248;-79
2024/01/29 21:38:41;;;;;;;5.97;1.80;;;10.70;99.90;;;;;;4944794;29;20212;-77
2024/01/29 21:41:08;;;;;;;4.03;1.70;;;10.70;99.90;;;;;;4949050;29;20208;-80
2024/01/29 21:43:35;;;;;;;3.53;1.67;;;10.60;99.90;;;;;;4945464;29;20216;-79
2024/01/29 21:46:02;;;;;;;3.77;1.90;;;10.60;99.90;;;;;;4935862;29;20224;-81
2024/01/29 21:48:29;;;;;;;4.47;1.60;;;10.60;99.90;;;;;;4937742;29;20213;-80
2024/01/29 21:50:56;;;;;;;3.37;1.70;;;10.60;99.90;;;;;;4934266;29;20259;-78
2024/01/29 21:53:24;;;;;;;3.93;1.57;;;10.60;99.90;;;;;;4929230;29;20377;-80
2024/01/29 21:55:51;;;;;;;2.87;1.37;;;10.50;99.90;;;;;;4937509;29;20207;-80
2024/01/29 21:58:19;;;;;;;2.70;1.70;;;10.60;99.90;;;;;;4938216;29;20656;-79
2024/01/29 22:00:46;;;;;;;4.67;2.00;;;10.60;99.90;;;;;;4938103;29;20284;-79
2024/01/29 22:03:13;;;;;;;2.37;1.63;;;10.60;99.90;;;;;;4937673;29;20237;-81
2024/01/29 22:05:40;;;;;;;2.93;1.67;;;10.60;99.90;;;;;;4937066;29;20208;-80
2024/01/29 22:08:10;;;;;;;4.50;1.93;;;10.60;99.90;;;;;;4937837;29;20240;-80
2024/01/29 22:10:39;;;;;;;3.20;1.70;;;10.70;99.90;;;;;;4943329;29;20315;-80